createdAt,value
2018-12-20T00:01:21.087Z,28.23
2018-12-20T00:03:54.235Z,35.67
2018-12-20T00:06:31.406Z,35.67
2018-12-20T00:09:07.504Z,29.67
2018-12-20T00:11:40.536Z,33.33
2018-12-20T00:14:12.702Z,29.07
2018-12-20T00:16:47.157Z,30.93
2018-12-20T00:19:23.421Z,29.37
2018-12-20T00:21:59.714Z,73.23
2018-12-20T00:24:32.294Z,45.37
2018-12-20T00:27:05.586Z,32.07
2018-12-20T00:29:42.601Z,27.77
2018-12-20T00:32:14.906Z,32.57
2018-12-20T00:34:51.182Z,29.17
2018-12-20T00:37:28.561Z,128.90
2018-12-20T00:40:06.434Z,32.13
2018-12-20T00:42:39.954Z,42.63
2018-12-20T00:45:12.431Z,30.40
2018-12-20T00:47:44.734Z,36.83
2018-12-20T00:50:22.030Z,43.03
2018-12-20T00:52:55.130Z,36.90
2018-12-20T00:55:28.253Z,35.73
2018-12-20T00:58:01.464Z,27.03
2018-12-20T01:00:38.313Z,36.67
2018-12-20T01:03:10.796Z,37.57
2018-12-20T01:05:48.030Z,37.83
2018-12-20T01:08:25.131Z,53.30
2018-12-20T01:10:57.931Z,57.53
2018-12-20T01:13:31.144Z,52.43
2018-12-20T01:16:08.296Z,54.97
2018-12-20T01:18:44.698Z,53.40
2018-12-20T01:21:21.965Z,37.33
2018-12-20T01:23:59.163Z,41.60
2018-12-20T01:26:35.394Z,43.30
2018-12-20T01:29:08.772Z,41.97
2018-12-20T01:31:46.012Z,40.40
2018-12-20T01:34:19.308Z,40.53
2018-12-20T01:36:53.145Z,38.97
2018-12-20T01:39:25.790Z,39.50
2018-12-20T01:41:58.827Z,44.77
2018-12-20T01:44:31.862Z,53.00
2018-12-20T01:47:04.414Z,49.73
2018-12-20T01:49:41.431Z,40.97
2018-12-20T01:52:18.460Z,40.13
2018-12-20T01:54:54.762Z,39.80
2018-12-20T01:57:27.327Z,54.83
2018-12-20T02:00:00.567Z,59.30
2018-12-20T02:02:33.622Z,53.73
2018-12-20T02:05:06.811Z,52.53
2018-12-20T02:07:43.979Z,43.73
2018-12-20T02:10:16.821Z,38.73
2018-12-20T02:12:56.842Z,54.87
2018-12-20T02:15:34.190Z,45.00
2018-12-20T02:18:07.349Z,51.27
2018-12-20T02:20:40.392Z,53.00
2018-12-20T02:23:13.642Z,54.03
2018-12-20T02:25:46.574Z,49.60
2018-12-20T02:29:21.865Z,45.37
2018-12-20T02:32:01.179Z,50.87
2018-12-20T02:34:34.217Z,45.73
2018-12-20T02:37:11.200Z,49.10
2018-12-20T02:39:48.277Z,45.03
2018-12-20T02:42:21.294Z,41.90
2018-12-20T02:44:54.573Z,45.63
2018-12-20T02:47:29.734Z,53.80
2018-12-20T02:50:03.014Z,51.53
2018-12-20T02:52:35.906Z,50.90
2018-12-20T02:55:08.762Z,57.07
2018-12-20T02:57:41.688Z,50.53
2018-12-20T03:00:18.834Z,42.20
2018-12-20T03:02:56.042Z,42.77
2018-12-20T03:05:32.391Z,160.80
2018-12-20T03:08:05.175Z,199.93
2018-12-20T03:10:38.407Z,64.20
2018-12-20T03:13:14.859Z,40.50
2018-12-20T03:15:56.509Z,39.77
2018-12-20T03:18:33.436Z,492.67
2018-12-20T03:21:06.463Z,411.23
2018-12-20T03:23:39.408Z,42.57
2018-12-20T03:26:12.607Z,44.10
2018-12-20T03:28:49.624Z,42.27
2018-12-20T03:31:27.215Z,44.00
2018-12-20T03:33:59.738Z,51.17
2018-12-20T03:36:32.175Z,53.00
2018-12-20T03:39:09.533Z,48.03
2018-12-20T03:41:42.760Z,50.47
2018-12-20T03:44:15.804Z,49.50
2018-12-20T03:46:52.035Z,48.70
2018-12-20T03:49:25.247Z,55.03
2018-12-20T03:52:02.247Z,51.90
2018-12-20T03:54:35.374Z,42.90
2018-12-20T03:57:11.677Z,42.90
2018-12-20T03:59:44.790Z,46.63
2018-12-20T04:02:24.158Z,50.53
2018-12-20T04:04:57.194Z,49.93
2018-12-20T04:07:30.534Z,55.17
2018-12-20T04:10:07.714Z,51.13
2018-12-20T04:12:44.278Z,44.07
2018-12-20T04:15:17.253Z,38.50
2018-12-20T04:17:50.469Z,57.73
2018-12-20T04:20:27.602Z,120.67
2018-12-20T04:23:04.793Z,49.47
2018-12-20T04:25:41.305Z,47.10
2018-12-20T04:28:14.319Z,48.73
2018-12-20T04:30:47.302Z,52.87
2018-12-20T04:33:20.520Z,53.57
2018-12-20T04:35:53.440Z,66.57
2018-12-20T04:38:26.410Z,52.67
2018-12-20T04:40:58.629Z,71.23
2018-12-20T04:43:38.939Z,59.47
2018-12-20T04:46:16.281Z,50.70
2018-12-20T04:48:49.465Z,52.63
2018-12-20T04:51:26.486Z,43.83
2018-12-20T04:54:02.793Z,33.37
2018-12-20T04:56:39.947Z,731.97
2018-12-20T04:59:16.760Z,59.37
2018-12-20T05:01:53.204Z,58.20
2018-12-20T05:04:30.269Z,69.57
2018-12-20T05:07:03.382Z,71.97
2018-12-20T05:09:40.584Z,60.37
2018-12-20T05:12:17.482Z,56.57
2018-12-20T05:14:50.978Z,61.27
2018-12-20T05:17:23.694Z,50.10
2018-12-20T05:19:56.644Z,57.30
2018-12-20T05:22:29.776Z,60.10
2018-12-20T05:25:07.368Z,87.17
2018-12-20T05:27:39.782Z,63.20
2018-12-20T05:30:12.983Z,71.53
2018-12-20T05:32:46.285Z,69.63
2018-12-20T05:35:19.627Z,70.60
2018-12-20T05:37:52.810Z,47.13
2018-12-20T05:40:30.922Z,42.90
2018-12-20T05:43:07.362Z,67.07
2018-12-20T05:45:40.437Z,60.20
2018-12-20T05:48:13.695Z,42.20
2018-12-20T05:50:46.364Z,56.23
2018-12-20T05:53:19.492Z,61.70
2018-12-20T05:55:52.636Z,69.33
2018-12-20T05:58:29.228Z,59.93
2018-12-20T06:01:02.331Z,51.60
2018-12-20T06:03:39.418Z,62.47
2018-12-20T06:06:15.763Z,57.40
2018-12-20T06:08:52.205Z,72.73
2018-12-20T06:11:29.190Z,71.10
2018-12-20T06:14:01.624Z,89.57
2018-12-20T06:16:34.516Z,74.50
2018-12-20T06:19:07.875Z,58.40
2018-12-20T06:21:44.710Z,70.07
2018-12-20T06:24:17.102Z,55.20
2018-12-20T06:26:49.562Z,67.83
2018-12-20T06:29:22.767Z,82.17
2018-12-20T06:31:59.910Z,49.73
2018-12-20T06:34:32.701Z,68.13
2018-12-20T06:37:08.999Z,58.73
2018-12-20T06:39:41.982Z,77.27
2018-12-20T06:42:15.051Z,53.13
2018-12-20T06:44:48.264Z,74.17
2018-12-20T06:47:21.638Z,60.93
2018-12-20T06:49:54.817Z,75.13
2018-12-20T06:52:28.144Z,91.47
2018-12-20T06:55:01.203Z,102.13
2018-12-20T06:57:34.526Z,110.27
2018-12-20T07:00:08.715Z,89.13
2018-12-20T07:02:41.404Z,214.20
2018-12-20T07:05:14.629Z,125.07
2018-12-20T07:07:52.075Z,160.10
2018-12-20T07:10:24.883Z,66.43
2018-12-20T07:12:57.257Z,57.13
2018-12-20T07:17:59.743Z,52.33
2018-12-20T07:20:32.917Z,151.27
2018-12-20T07:23:09.235Z,384.57
2018-12-20T07:25:45.567Z,450.60
2018-12-20T07:28:18.743Z,292.40
2018-12-20T07:30:51.194Z,423.57
2018-12-20T07:33:24.269Z,211.47
2018-12-20T07:35:57.309Z,185.07
2018-12-20T07:38:31.574Z,192.63
2018-12-20T07:41:04.866Z,476.37
2018-12-20T07:43:37.955Z,168.37
2018-12-20T07:46:10.210Z,210.83
2018-12-20T07:48:47.614Z,190.60
2018-12-20T07:51:25.453Z,208.43
2018-12-20T07:54:02.056Z,264.03
2018-12-20T07:56:35.110Z,147.60
2018-12-20T07:59:07.469Z,287.33
2018-12-20T08:01:40.253Z,403.07
2018-12-20T08:04:16.639Z,298.00
2018-12-20T08:06:49.734Z,226.03
2018-12-20T08:09:23.038Z,278.27
2018-12-20T08:11:55.372Z,572.23
2018-12-20T08:14:28.537Z,1192.17
2018-12-20T08:17:00.830Z,594.77
2018-12-20T08:19:37.307Z,1286.23
2018-12-20T08:22:10.422Z,877.60
2018-12-20T08:24:42.713Z,1235.57
2018-12-20T08:27:15.071Z,872.87
2018-12-20T08:29:48.290Z,770.33
2018-12-20T08:32:21.498Z,848.53
2018-12-20T08:34:54.470Z,191.63
2018-12-20T08:37:27.683Z,336.80
2018-12-20T08:40:05.226Z,286.27
2018-12-20T08:42:38.199Z,272.23
2018-12-20T08:45:14.510Z,467.20
2018-12-20T08:47:47.666Z,194.67
2018-12-20T08:50:24.101Z,311.37
2018-12-20T08:52:57.172Z,221.23
2018-12-20T08:55:30.362Z,197.30
2018-12-20T08:58:07.394Z,340.73
2018-12-20T09:00:40.634Z,212.77
2018-12-20T09:03:13.794Z,224.80
2018-12-20T09:05:47.111Z,159.73
2018-12-20T09:08:20.070Z,250.87
2018-12-20T09:10:53.046Z,184.27
2018-12-20T09:13:26.181Z,152.20
2018-12-20T09:15:59.413Z,194.70
2018-12-20T09:18:32.566Z,177.17
2018-12-20T09:21:05.107Z,535.53
2018-12-20T09:23:37.922Z,168.33
2018-12-20T09:26:10.951Z,145.13
2018-12-20T09:28:43.525Z,142.53
2018-12-20T09:31:16.360Z,379.93
2018-12-20T09:33:53.275Z,231.93
2018-12-20T09:36:25.614Z,204.53
2018-12-20T09:38:58.855Z,572.37
2018-12-20T09:41:32.079Z,562.40
2018-12-20T09:44:05.053Z,763.93
2018-12-20T09:46:37.370Z,648.50
2018-12-20T09:49:15.718Z,593.53
2018-12-20T09:51:48.939Z,382.27
2018-12-20T09:54:26.018Z,595.63
2018-12-20T09:57:02.422Z,315.80
2018-12-20T09:59:38.915Z,198.97
2018-12-20T10:02:11.326Z,404.23
2018-12-20T10:04:48.469Z,316.83
2018-12-20T10:07:25.784Z,280.27
2018-12-20T10:09:58.915Z,235.27
2018-12-20T10:12:36.091Z,248.97
2018-12-20T10:15:13.298Z,228.30
2018-12-20T10:17:50.235Z,381.43
2018-12-20T10:20:23.384Z,149.83
2018-12-20T10:22:56.647Z,236.27
2018-12-20T10:25:29.930Z,114.57
2018-12-20T10:28:02.890Z,72.97
2018-12-20T10:30:35.896Z,159.70
2018-12-20T10:33:08.821Z,110.47
2018-12-20T10:35:45.144Z,147.83
2018-12-20T10:38:18.085Z,38.17
2018-12-20T10:40:50.985Z,51.47
2018-12-20T10:43:24.184Z,47.00
2018-12-20T10:45:57.215Z,46.77
2018-12-20T10:48:30.268Z,66.00
2018-12-20T10:51:03.141Z,41.50
2018-12-20T10:53:35.651Z,42.00
2018-12-20T10:56:12.115Z,274.70
2018-12-20T10:58:48.447Z,682.77
2018-12-20T11:01:25.879Z,634.27
2018-12-20T11:04:03.364Z,542.47
2018-12-20T11:06:45.484Z,503.40
2018-12-20T11:09:28.864Z,353.77
2018-12-20T11:12:06.781Z,421.57
2018-12-20T11:14:39.894Z,237.57
2018-12-20T11:17:12.946Z,186.43
2018-12-20T11:19:45.881Z,222.63
2018-12-20T11:22:18.407Z,287.67
2018-12-20T11:24:51.598Z,433.63
2018-12-20T11:27:28.645Z,198.67
2018-12-20T11:30:01.668Z,432.80
2018-12-20T11:32:34.754Z,232.40
2018-12-20T11:35:08.715Z,102.00
2018-12-20T11:37:40.998Z,131.23
2018-12-20T11:40:13.842Z,70.43
2018-12-20T11:42:47.006Z,40.47
2018-12-20T11:45:20.118Z,347.57
2018-12-20T11:47:53.175Z,963.13
2018-12-20T11:50:26.167Z,1339.33
2018-12-20T11:52:59.230Z,351.30
2018-12-20T11:55:32.024Z,134.30
2018-12-20T11:58:09.911Z,52.97
2018-12-20T12:00:42.966Z,124.67
2018-12-20T12:03:16.144Z,81.77
2018-12-20T12:05:48.499Z,45.30
2018-12-20T12:08:24.883Z,44.97
2018-12-20T12:10:57.950Z,43.97
2018-12-20T12:13:34.289Z,43.23
2018-12-20T12:16:06.575Z,34.10
2018-12-20T12:18:42.922Z,33.93
2018-12-20T12:21:16.030Z,25.93
2018-12-20T12:26:18.250Z,39.10
2018-12-20T12:28:51.463Z,233.87
2018-12-20T12:31:28.454Z,162.30
2018-12-20T12:34:05.529Z,119.63
2018-12-20T12:36:38.795Z,47.03
2018-12-20T12:39:11.291Z,51.93
2018-12-20T12:41:44.451Z,44.63
2018-12-20T12:44:20.821Z,48.00
2018-12-20T12:46:54.087Z,42.37
2018-12-20T12:49:31.280Z,47.43
2018-12-20T12:52:08.322Z,37.37
2018-12-20T12:54:41.475Z,42.83
2018-12-20T12:57:13.863Z,42.20
2018-12-20T12:59:47.027Z,72.23
2018-12-20T13:02:20.228Z,74.20
2018-12-20T13:04:53.396Z,230.00
2018-12-20T13:07:30.684Z,296.73
2018-12-20T13:10:07.881Z,59.70
2018-12-20T13:12:40.902Z,39.83
2018-12-20T13:15:18.181Z,40.83
2018-12-20T13:17:54.546Z,35.77
2018-12-20T13:20:27.629Z,40.30
2018-12-20T13:23:00.835Z,35.33
2018-12-20T13:25:33.889Z,33.07
2018-12-20T13:28:07.286Z,34.83
2018-12-20T13:30:40.367Z,38.37
2018-12-20T13:33:16.662Z,36.50
2018-12-20T13:35:49.721Z,37.50
2018-12-20T13:38:21.966Z,35.53
2018-12-20T13:40:54.542Z,39.60
2018-12-20T13:43:30.878Z,48.97
2018-12-20T13:46:04.102Z,35.20
2018-12-20T13:48:37.327Z,27.63
2018-12-20T13:51:10.497Z,28.80
2018-12-20T13:53:43.635Z,31.83
2018-12-20T13:56:16.652Z,31.03
2018-12-20T13:58:53.869Z,31.33
2018-12-20T14:01:30.871Z,31.83
2018-12-20T14:04:03.178Z,33.13
2018-12-20T14:06:36.344Z,28.27
2018-12-20T14:09:09.923Z,28.07
2018-12-20T14:11:42.922Z,28.83
2018-12-20T14:14:16.129Z,35.67
2018-12-20T14:16:52.606Z,30.57
2018-12-20T14:19:29.704Z,30.50
2018-12-20T14:22:02.677Z,35.03
2018-12-20T14:24:39.743Z,34.17
2018-12-20T14:27:15.990Z,36.00
2018-12-20T14:29:49.275Z,33.27
2018-12-20T14:32:22.312Z,29.47
2018-12-20T14:34:55.254Z,33.53
2018-12-20T14:37:28.370Z,33.60
2018-12-20T14:40:01.568Z,30.97
2018-12-20T14:42:34.218Z,28.57
2018-12-20T14:45:07.500Z,32.17
2018-12-20T14:47:40.226Z,29.67
2018-12-20T14:50:12.868Z,34.90
2018-12-20T14:52:45.743Z,37.10
2018-12-20T14:55:22.006Z,34.80
2018-12-20T14:57:54.254Z,36.80
2018-12-20T15:00:27.275Z,41.67
2018-12-20T15:03:00.407Z,45.30
2018-12-20T15:05:33.250Z,49.50
2018-12-20T15:08:06.442Z,49.67
2018-12-20T15:10:39.627Z,59.97
2018-12-20T15:13:16.679Z,56.83
2018-12-20T15:15:58.279Z,51.00
2018-12-20T15:18:35.354Z,43.77
2018-12-20T15:21:08.338Z,42.80
2018-12-20T15:23:44.672Z,40.77
2018-12-20T15:26:21.143Z,41.07
2018-12-20T15:28:54.250Z,45.33
2018-12-20T15:31:27.246Z,45.67
2018-12-20T15:34:04.282Z,57.60
2018-12-20T15:36:37.132Z,63.30
2018-12-20T15:39:10.050Z,58.53
2018-12-20T15:41:47.119Z,52.23
2018-12-20T15:44:20.135Z,52.23
2018-12-20T15:46:52.398Z,50.43
2018-12-20T15:49:25.530Z,50.37
2018-12-20T15:51:58.317Z,48.87
2018-12-20T15:54:31.466Z,52.67
2018-12-20T15:57:04.435Z,42.20
2018-12-20T15:59:41.506Z,40.40
2018-12-20T16:02:14.558Z,52.90
2018-12-20T16:04:47.380Z,54.10
2018-12-20T16:07:19.853Z,46.43
2018-12-20T16:09:53.063Z,50.97
2018-12-20T16:12:29.438Z,54.17
2018-12-20T16:15:01.773Z,55.63
2018-12-20T16:17:34.890Z,58.50
2018-12-20T16:20:08.726Z,59.77
2018-12-20T16:22:41.809Z,54.67
2018-12-20T16:25:18.954Z,52.90
2018-12-20T16:27:52.235Z,50.40
2018-12-20T16:30:25.375Z,43.73
2018-12-20T16:33:06.818Z,40.20
2018-12-20T16:35:43.581Z,37.13
2018-12-20T16:38:19.829Z,29.17
2018-12-20T16:40:53.018Z,30.10
2018-12-20T16:43:29.969Z,25.17
2018-12-20T16:46:07.015Z,23.13
2018-12-20T16:48:40.123Z,23.60
2018-12-20T16:51:13.258Z,29.90
2018-12-20T16:53:50.467Z,31.03
2018-12-20T16:56:23.556Z,30.90
2018-12-20T16:59:00.840Z,38.67
2018-12-20T17:01:37.938Z,36.53
2018-12-20T17:04:14.228Z,39.23
2018-12-20T17:06:47.424Z,40.20
2018-12-20T17:09:19.858Z,31.60
2018-12-20T17:11:52.067Z,38.93
2018-12-20T17:14:24.438Z,36.93
2018-12-20T17:17:01.291Z,44.43
2018-12-20T17:19:38.579Z,43.77
2018-12-20T17:22:11.632Z,35.90
2018-12-20T17:24:48.839Z,30.20
2018-12-20T17:27:21.246Z,33.10
2018-12-20T17:29:53.620Z,43.90
2018-12-20T17:34:56.626Z,42.43
2018-12-20T17:37:33.694Z,29.10
2018-12-20T17:40:07.691Z,53.07
2018-12-20T17:42:44.093Z,32.47
2018-12-20T17:45:20.358Z,34.13
2018-12-20T17:47:53.477Z,64.07
2018-12-20T17:50:29.872Z,55.17
2018-12-20T17:53:06.414Z,48.07
2018-12-20T17:55:44.746Z,43.70
2018-12-20T17:58:14.731Z,20.00
2018-12-20T18:00:47.693Z,44.23
2018-12-20T18:03:24.098Z,45.73
2018-12-20T18:05:57.534Z,23.60
2018-12-20T18:08:30.366Z,26.20
2018-12-20T18:11:03.601Z,54.67
2018-12-20T18:13:36.630Z,302.57
2018-12-20T18:16:13.807Z,46.60
2018-12-20T18:18:47.038Z,41.93
2018-12-20T18:21:19.227Z,40.17
2018-12-20T18:23:52.447Z,32.43
2018-12-20T18:26:25.472Z,26.00
2018-12-20T18:28:58.371Z,28.57
2018-12-20T18:31:35.449Z,29.13
2018-12-20T18:34:11.719Z,28.93
2018-12-20T18:36:48.013Z,27.53
2018-12-20T18:39:20.973Z,30.80
2018-12-20T18:41:54.029Z,34.77
2018-12-20T18:44:30.279Z,33.03
2018-12-20T18:47:03.328Z,24.07
2018-12-20T18:49:47.646Z,21.17
2018-12-20T18:52:20.090Z,26.70
2018-12-20T18:54:53.227Z,23.63
2018-12-20T18:57:31.482Z,22.07
2018-12-20T19:00:05.399Z,18.70
2018-12-20T19:02:38.110Z,24.87
2018-12-20T19:05:14.362Z,31.77
2018-12-20T19:07:51.522Z,32.93
2018-12-20T19:10:30.253Z,32.13
2018-12-20T19:13:03.446Z,21.70
2018-12-20T19:15:36.302Z,31.93
2018-12-20T19:18:09.423Z,38.57
2018-12-20T19:20:46.611Z,36.00
2018-12-20T19:23:23.478Z,30.90
2018-12-20T19:25:56.737Z,30.23
2018-12-20T19:28:29.906Z,32.37
2018-12-20T19:31:03.286Z,30.30
2018-12-20T19:33:45.010Z,35.63
2018-12-20T19:36:17.778Z,36.77
2018-12-20T19:38:54.407Z,49.57
2018-12-20T19:41:36.622Z,39.53
2018-12-20T19:44:13.675Z,38.40
2018-12-20T19:46:46.046Z,26.70
2018-12-20T19:49:18.454Z,33.50
2018-12-20T19:51:54.712Z,33.77
2018-12-20T19:54:27.163Z,36.33
2018-12-20T19:56:59.713Z,37.67
2018-12-20T19:59:38.767Z,40.73
2018-12-20T20:02:16.006Z,86.23
2018-12-20T20:04:49.123Z,59.33
2018-12-20T20:07:25.380Z,30.60
2018-12-20T20:09:59.118Z,77.77
2018-12-20T20:12:32.118Z,74.87
2018-12-20T20:15:05.977Z,39.23
2018-12-20T20:17:42.675Z,44.57
2018-12-20T20:20:15.859Z,30.30
2018-12-20T20:22:48.979Z,111.77
2018-12-20T20:25:25.180Z,111.33
2018-12-20T20:28:02.326Z,37.17
2018-12-20T20:30:35.428Z,53.03
2018-12-20T20:33:11.907Z,46.10
2018-12-20T20:35:48.136Z,55.70
2018-12-20T20:38:21.262Z,158.27
2018-12-20T20:40:54.336Z,71.40
2018-12-20T20:43:27.178Z,58.07
2018-12-20T20:45:59.579Z,79.57
2018-12-20T20:48:31.910Z,79.40
2018-12-20T20:51:04.199Z,58.13
2018-12-20T20:53:36.398Z,97.17
2018-12-20T20:56:13.432Z,68.37
2018-12-20T20:58:45.658Z,118.13
2018-12-20T21:01:22.681Z,89.20
2018-12-20T21:04:03.229Z,103.57
2018-12-20T21:06:29.207Z,47.63
2018-12-20T21:09:03.566Z,44.93
2018-12-20T21:11:36.739Z,47.90
2018-12-20T21:14:18.197Z,44.20
2018-12-20T21:16:51.105Z,44.53
2018-12-20T21:19:28.280Z,38.37
2018-12-20T21:22:01.422Z,38.27
2018-12-20T21:24:38.313Z,46.10
2018-12-20T21:27:11.463Z,36.43
2018-12-20T21:29:48.590Z,39.67
2018-12-20T21:32:24.798Z,47.40
2018-12-20T21:34:57.931Z,47.67
2018-12-20T21:37:34.230Z,52.33
2018-12-20T21:40:11.211Z,40.87
2018-12-20T21:42:44.571Z,47.50
2018-12-20T21:45:17.711Z,36.73
2018-12-20T21:47:50.186Z,60.27
2018-12-20T21:50:23.275Z,116.63
2018-12-20T21:53:00.431Z,47.70
2018-12-20T21:55:33.499Z,40.93
2018-12-20T21:58:06.691Z,43.50
2018-12-20T22:00:39.618Z,57.13
2018-12-20T22:03:12.715Z,58.60
2018-12-20T22:05:49.070Z,58.00
2018-12-20T22:08:25.346Z,65.13
2018-12-20T22:11:01.622Z,68.27
2018-12-20T22:13:37.923Z,56.53
2018-12-20T22:16:14.237Z,81.07
2018-12-20T22:18:46.613Z,73.60
2018-12-20T22:21:18.971Z,48.50
2018-12-20T22:23:51.178Z,55.27
2018-12-20T22:26:24.289Z,50.70
2018-12-20T22:29:00.598Z,46.60
2018-12-20T22:31:37.739Z,41.90
2018-12-20T22:34:17.149Z,39.33
2018-12-20T22:36:50.179Z,47.40
2018-12-20T22:39:23.325Z,47.47
2018-12-20T22:44:26.030Z,52.13
2018-12-20T22:46:58.735Z,50.10
2018-12-20T22:49:31.060Z,57.20
2018-12-20T22:52:04.102Z,51.70
2018-12-20T22:54:36.303Z,41.77
2018-12-20T22:57:08.528Z,51.17
2018-12-20T22:59:41.014Z,64.27
2018-12-20T23:02:18.038Z,76.63
2018-12-20T23:04:48.318Z,50.80
2018-12-20T23:07:24.714Z,48.40
2018-12-20T23:09:57.713Z,48.30
2018-12-20T23:12:30.805Z,55.27
2018-12-20T23:15:04.190Z,54.97
2018-12-20T23:17:40.982Z,58.07
2018-12-20T23:20:17.199Z,65.77
2018-12-20T23:22:50.150Z,53.07
2018-12-20T23:25:26.384Z,61.80
2018-12-20T23:28:02.770Z,52.67
2018-12-20T23:30:35.798Z,44.50
2018-12-20T23:33:08.722Z,37.43
2018-12-20T23:35:41.860Z,32.37
2018-12-20T23:38:18.178Z,34.70
2018-12-20T23:40:51.181Z,51.87
2018-12-20T23:43:24.213Z,51.53
2018-12-20T23:45:57.407Z,46.00
2018-12-20T23:48:30.351Z,50.20
2018-12-20T23:51:03.143Z,53.00
2018-12-20T23:53:35.574Z,53.63
2018-12-20T23:56:08.638Z,50.10
2018-12-20T23:58:41.772Z,43.80
